sensor_id;sensor_type;location;lat;lon;timestamp;P1;durP1;ratioP1;P2;durP2;ratioP2
7969;SDS011;4030;52.362;9.206;2023-08-06T00:00:18;1.20;;;1.10;;
7969;SDS011;4030;52.362;9.206;2023-08-06T00:02:44;1.40;;;1.10;;
7969;SDS011;4030;52.362;9.206;2023-08-06T00:05:10;1.17;;;1.08;;
7969;SDS011;4030;52.362;9.206;2023-08-06T00:07:36;1.00;;;0.90;;
7969;SDS011;4030;52.362;9.206;2023-08-06T00:10:01;1.63;;;1.10;;
7969;SDS011;4030;52.362;9.206;2023-08-06T00:12:27;1.20;;;1.10;;
7969;SDS011;4030;52.362;9.206;2023-08-06T00:14:53;1.88;;;1.00;;
7969;SDS011;4030;52.362;9.206;2023-08-06T00:17:19;1.65;;;1.13;;
7969;SDS011;4030;52.362;9.206;2023-08-06T00:19:45;1.63;;;1.00;;
7969;SDS011;4030;52.362;9.206;2023-08-06T00:22:10;1.10;;;1.00;;
7969;SDS011;4030;52.362;9.206;2023-08-06T00:24:36;1.70;;;1.00;;
7969;SDS011;4030;52.362;9.206;2023-08-06T00:27:02;2.10;;;1.20;;
7969;SDS011;4030;52.362;9.206;2023-08-06T00:29:28;2.05;;;1.33;;
7969;SDS011;4030;52.362;9.206;2023-08-06T00:31:54;1.25;;;1.10;;
7969;SDS011;4030;52.362;9.206;2023-08-06T00:34:19;1.20;;;1.00;;
7969;SDS011;4030;52.362;9.206;2023-08-06T00:36:45;2.15;;;1.13;;
7969;SDS011;4030;52.362;9.206;2023-08-06T00:39:11;1.60;;;1.50;;
7969;SDS011;4030;52.362;9.206;2023-08-06T00:41:37;1.20;;;1.10;;
7969;SDS011;4030;52.362;9.206;2023-08-06T00:44:03;1.17;;;0.90;;
7969;SDS011;4030;52.362;9.206;2023-08-06T00:46:28;1.27;;;1.00;;
7969;SDS011;4030;52.362;9.206;2023-08-06T00:48:55;1.65;;;1.20;;
7969;SDS011;4030;52.362;9.206;2023-08-06T00:51:21;1.77;;;1.00;;
7969;SDS011;4030;52.362;9.206;2023-08-06T00:53:48;1.40;;;1.02;;
7969;SDS011;4030;52.362;9.206;2023-08-06T00:56:15;1.27;;;1.00;;
7969;SDS011;4030;52.362;9.206;2023-08-06T00:58:40;2.08;;;1.15;;
7969;SDS011;4030;52.362;9.206;2023-08-06T01:01:07;1.15;;;1.05;;
7969;SDS011;4030;52.362;9.206;2023-08-06T01:03:33;2.30;;;1.20;;
7969;SDS011;4030;52.362;9.206;2023-08-06T01:05:58;1.20;;;1.00;;
7969;SDS011;4030;52.362;9.206;2023-08-06T01:08:30;1.80;;;1.27;;
7969;SDS011;4030;52.362;9.206;2023-08-06T01:11:38;2.25;;;1.30;;
7969;SDS011;4030;52.362;9.206;2023-08-06T01:14:21;1.35;;;1.10;;
7969;SDS011;4030;52.362;9.206;2023-08-06T01:17:50;1.33;;;1.08;;
7969;SDS011;4030;52.362;9.206;2023-08-06T01:20:17;2.20;;;1.20;;
7969;SDS011;4030;52.362;9.206;2023-08-06T01:22:43;1.08;;;0.90;;
7969;SDS011;4030;52.362;9.206;2023-08-06T01:25:09;1.10;;;1.00;;
7969;SDS011;4030;52.362;9.206;2023-08-06T01:30:17;2.65;;;1.00;;
7969;SDS011;4030;52.362;9.206;2023-08-06T01:32:53;2.08;;;1.10;;
7969;SDS011;4030;52.362;9.206;2023-08-06T01:35:24;1.70;;;1.30;;
7969;SDS011;4030;52.362;9.206;2023-08-06T01:37:52;1.50;;;1.00;;
7969;SDS011;4030;52.362;9.206;2023-08-06T01:40:18;1.10;;;1.00;;
7969;SDS011;4030;52.362;9.206;2023-08-06T01:42:43;1.40;;;1.23;;
7969;SDS011;4030;52.362;9.206;2023-08-06T01:45:09;1.17;;;0.90;;
7969;SDS011;4030;52.362;9.206;2023-08-06T01:47:36;1.15;;;0.90;;
7969;SDS011;4030;52.362;9.206;2023-08-06T01:50:02;3.05;;;1.10;;
7969;SDS011;4030;52.362;9.206;2023-08-06T01:52:28;1.25;;;1.02;;
7969;SDS011;4030;52.362;9.206;2023-08-06T01:54:54;1.77;;;1.13;;
7969;SDS011;4030;52.362;9.206;2023-08-06T01:57:20;2.10;;;1.00;;
7969;SDS011;4030;52.362;9.206;2023-08-06T01:59:45;1.30;;;1.00;;
7969;SDS011;4030;52.362;9.206;2023-08-06T02:02:11;1.48;;;1.08;;
7969;SDS011;4030;52.362;9.206;2023-08-06T02:04:37;1.60;;;1.10;;
7969;SDS011;4030;52.362;9.206;2023-08-06T02:07:03;1.50;;;1.23;;
7969;SDS011;4030;52.362;9.206;2023-08-06T02:09:29;3.28;;;1.20;;
7969;SDS011;4030;52.362;9.206;2023-08-06T02:11:54;2.97;;;1.20;;
7969;SDS011;4030;52.362;9.206;2023-08-06T02:14:20;2.60;;;1.13;;
7969;SDS011;4030;52.362;9.206;2023-08-06T02:16:46;2.40;;;1.38;;
7969;SDS011;4030;52.362;9.206;2023-08-06T02:19:11;2.92;;;1.38;;
7969;SDS011;4030;52.362;9.206;2023-08-06T02:21:37;2.25;;;1.40;;
7969;SDS011;4030;52.362;9.206;2023-08-06T02:24:03;2.47;;;1.45;;
7969;SDS011;4030;52.362;9.206;2023-08-06T02:26:29;1.42;;;1.33;;
7969;SDS011;4030;52.362;9.206;2023-08-06T02:28:54;2.45;;;1.40;;
7969;SDS011;4030;52.362;9.206;2023-08-06T02:31:20;3.33;;;1.40;;
7969;SDS011;4030;52.362;9.206;2023-08-06T02:33:46;3.55;;;1.65;;
7969;SDS011;4030;52.362;9.206;2023-08-06T02:36:12;1.60;;;1.40;;
7969;SDS011;4030;52.362;9.206;2023-08-06T02:38:37;2.22;;;1.40;;
7969;SDS011;4030;52.362;9.206;2023-08-06T02:41:03;1.52;;;1.38;;
7969;SDS011;4030;52.362;9.206;2023-08-06T02:43:29;1.75;;;1.48;;
7969;SDS011;4030;52.362;9.206;2023-08-06T02:46:01;3.05;;;1.58;;
7969;SDS011;4030;52.362;9.206;2023-08-06T02:48:28;1.90;;;1.50;;
7969;SDS011;4030;52.362;9.206;2023-08-06T02:50:56;2.80;;;1.58;;
7969;SDS011;4030;52.362;9.206;2023-08-06T02:53:26;1.98;;;1.50;;
7969;SDS011;4030;52.362;9.206;2023-08-06T02:55:52;2.10;;;1.67;;
7969;SDS011;4030;52.362;9.206;2023-08-06T02:58:18;1.60;;;1.50;;
7969;SDS011;4030;52.362;9.206;2023-08-06T03:00:58;2.45;;;1.65;;
7969;SDS011;4030;52.362;9.206;2023-08-06T03:03:30;2.00;;;1.60;;
7969;SDS011;4030;52.362;9.206;2023-08-06T03:05:56;1.83;;;1.65;;
7969;SDS011;4030;52.362;9.206;2023-08-06T03:08:22;2.67;;;1.58;;
7969;SDS011;4030;52.362;9.206;2023-08-06T03:10:49;3.38;;;1.65;;
7969;SDS011;4030;52.362;9.206;2023-08-06T03:13:16;4.57;;;1.75;;
7969;SDS011;4030;52.362;9.206;2023-08-06T03:15:42;2.30;;;1.45;;
7969;SDS011;4030;52.362;9.206;2023-08-06T03:18:08;2.58;;;1.70;;
7969;SDS011;4030;52.362;9.206;2023-08-06T03:20:34;2.97;;;1.70;;
7969;SDS011;4030;52.362;9.206;2023-08-06T03:23:00;1.90;;;1.70;;
7969;SDS011;4030;52.362;9.206;2023-08-06T03:25:25;2.50;;;1.80;;
7969;SDS011;4030;52.362;9.206;2023-08-06T03:27:51;4.75;;;1.80;;
7969;SDS011;4030;52.362;9.206;2023-08-06T03:30:17;4.13;;;1.77;;
7969;SDS011;4030;52.362;9.206;2023-08-06T03:32:42;3.72;;;1.60;;
7969;SDS011;4030;52.362;9.206;2023-08-06T03:35:08;2.08;;;1.67;;
7969;SDS011;4030;52.362;9.206;2023-08-06T03:37:34;2.78;;;2.00;;
7969;SDS011;4030;52.362;9.206;2023-08-06T03:39:59;3.58;;;1.50;;
7969;SDS011;4030;52.362;9.206;2023-08-06T03:42:25;2.88;;;1.70;;
7969;SDS011;4030;52.362;9.206;2023-08-06T03:44:51;2.17;;;1.83;;
7969;SDS011;4030;52.362;9.206;2023-08-06T03:47:16;2.13;;;1.50;;
7969;SDS011;4030;52.362;9.206;2023-08-06T03:49:42;2.50;;;1.60;;
7969;SDS011;4030;52.362;9.206;2023-08-06T03:52:08;3.13;;;1.60;;
7969;SDS011;4030;52.362;9.206;2023-08-06T03:54:34;2.60;;;1.60;;
7969;SDS011;4030;52.362;9.206;2023-08-06T03:56:59;4.22;;;2.05;;
7969;SDS011;4030;52.362;9.206;2023-08-06T03:59:25;4.05;;;2.00;;
7969;SDS011;4030;52.362;9.206;2023-08-06T04:01:51;3.70;;;2.03;;
7969;SDS011;4030;52.362;9.206;2023-08-06T04:04:16;3.28;;;1.92;;
7969;SDS011;4030;52.362;9.206;2023-08-06T04:06:42;2.20;;;2.00;;
7969;SDS011;4030;52.362;9.206;2023-08-06T04:09:08;2.15;;;1.95;;
7969;SDS011;4030;52.362;9.206;2023-08-06T04:11:33;3.20;;;1.75;;
7969;SDS011;4030;52.362;9.206;2023-08-06T04:13:59;2.88;;;1.98;;
7969;SDS011;4030;52.362;9.206;2023-08-06T04:16:25;2.85;;;1.80;;
7969;SDS011;4030;52.362;9.206;2023-08-06T04:18:51;3.80;;;1.80;;
7969;SDS011;4030;52.362;9.206;2023-08-06T04:21:18;2.05;;;1.70;;
7969;SDS011;4030;52.362;9.206;2023-08-06T04:23:44;3.45;;;2.10;;
7969;SDS011;4030;52.362;9.206;2023-08-06T04:26:09;2.13;;;1.92;;
7969;SDS011;4030;52.362;9.206;2023-08-06T04:28:35;3.17;;;1.88;;
7969;SDS011;4030;52.362;9.206;2023-08-06T04:31:01;2.30;;;1.80;;
7969;SDS011;4030;52.362;9.206;2023-08-06T04:33:27;2.35;;;1.80;;
7969;SDS011;4030;52.362;9.206;2023-08-06T04:35:55;2.65;;;1.80;;
7969;SDS011;4030;52.362;9.206;2023-08-06T04:38:25;2.72;;;1.42;;
7969;SDS011;4030;52.362;9.206;2023-08-06T04:40:51;2.53;;;1.70;;
7969;SDS011;4030;52.362;9.206;2023-08-06T04:43:17;2.78;;;1.70;;
7969;SDS011;4030;52.362;9.206;2023-08-06T04:45:47;3.15;;;1.63;;
7969;SDS011;4030;52.362;9.206;2023-08-06T04:48:14;1.80;;;1.70;;
7969;SDS011;4030;52.362;9.206;2023-08-06T04:50:43;2.38;;;1.60;;
7969;SDS011;4030;52.362;9.206;2023-08-06T04:53:10;1.67;;;1.55;;
7969;SDS011;4030;52.362;9.206;2023-08-06T04:55:35;1.77;;;1.63;;
7969;SDS011;4030;52.362;9.206;2023-08-06T04:58:01;1.50;;;1.40;;
7969;SDS011;4030;52.362;9.206;2023-08-06T05:00:27;2.45;;;1.63;;
7969;SDS011;4030;52.362;9.206;2023-08-06T05:02:52;2.20;;;1.63;;
7969;SDS011;4030;52.362;9.206;2023-08-06T05:05:18;3.00;;;1.60;;
7969;SDS011;4030;52.362;9.206;2023-08-06T05:07:45;3.65;;;1.60;;
7969;SDS011;4030;52.362;9.206;2023-08-06T05:10:14;2.75;;;1.40;;
7969;SDS011;4030;52.362;9.206;2023-08-06T05:12:40;1.92;;;1.35;;
7969;SDS011;4030;52.362;9.206;2023-08-06T05:15:06;2.38;;;1.30;;
7969;SDS011;4030;52.362;9.206;2023-08-06T05:17:32;1.95;;;1.52;;
7969;SDS011;4030;52.362;9.206;2023-08-06T05:19:58;1.83;;;1.45;;
7969;SDS011;4030;52.362;9.206;2023-08-06T05:22:24;2.10;;;1.30;;
7969;SDS011;4030;52.362;9.206;2023-08-06T05:24:50;2.53;;;1.60;;
7969;SDS011;4030;52.362;9.206;2023-08-06T05:27:16;1.92;;;1.30;;
7969;SDS011;4030;52.362;9.206;2023-08-06T05:29:43;3.28;;;1.45;;
7969;SDS011;4030;52.362;9.206;2023-08-06T05:32:10;2.03;;;1.50;;
7969;SDS011;4030;52.362;9.206;2023-08-06T05:34:35;2.88;;;1.35;;
7969;SDS011;4030;52.362;9.206;2023-08-06T05:37:02;2.97;;;1.27;;
7969;SDS011;4030;52.362;9.206;2023-08-06T05:39:28;1.48;;;1.30;;
7969;SDS011;4030;52.362;9.206;2023-08-06T05:41:54;1.90;;;1.40;;
7969;SDS011;4030;52.362;9.206;2023-08-06T05:44:20;1.95;;;1.40;;
7969;SDS011;4030;52.362;9.206;2023-08-06T05:46:46;1.35;;;1.20;;
7969;SDS011;4030;52.362;9.206;2023-08-06T05:49:12;1.60;;;1.50;;
7969;SDS011;4030;52.362;9.206;2023-08-06T05:51:38;3.65;;;1.40;;
7969;SDS011;4030;52.362;9.206;2023-08-06T05:54:04;2.45;;;1.30;;
7969;SDS011;4030;52.362;9.206;2023-08-06T05:56:30;2.08;;;1.30;;
7969;SDS011;4030;52.362;9.206;2023-08-06T05:58:56;1.48;;;1.00;;
7969;SDS011;4030;52.362;9.206;2023-08-06T06:01:21;1.45;;;1.33;;
7969;SDS011;4030;52.362;9.206;2023-08-06T06:03:48;1.13;;;1.02;;
7969;SDS011;4030;52.362;9.206;2023-08-06T06:06:13;1.90;;;1.10;;
7969;SDS011;4030;52.362;9.206;2023-08-06T06:08:39;2.67;;;1.20;;
7969;SDS011;4030;52.362;9.206;2023-08-06T06:11:05;3.60;;;1.10;;
7969;SDS011;4030;52.362;9.206;2023-08-06T06:13:31;2.45;;;1.30;;
7969;SDS011;4030;52.362;9.206;2023-08-06T06:15:56;1.20;;;1.10;;
7969;SDS011;4030;52.362;9.206;2023-08-06T06:18:22;1.20;;;1.10;;
7969;SDS011;4030;52.362;9.206;2023-08-06T06:20:48;1.05;;;0.95;;
7969;SDS011;4030;52.362;9.206;2023-08-06T06:23:13;1.63;;;1.20;;
7969;SDS011;4030;52.362;9.206;2023-08-06T06:25:43;2.00;;;1.10;;
7969;SDS011;4030;52.362;9.206;2023-08-06T06:28:12;4.38;;;1.10;;
7969;SDS011;4030;52.362;9.206;2023-08-06T06:30:38;1.20;;;1.00;;
7969;SDS011;4030;52.362;9.206;2023-08-06T06:33:03;1.95;;;1.00;;
7969;SDS011;4030;52.362;9.206;2023-08-06T06:35:29;2.05;;;1.20;;
7969;SDS011;4030;52.362;9.206;2023-08-06T06:37:55;1.65;;;1.20;;
7969;SDS011;4030;52.362;9.206;2023-08-06T06:40:20;1.83;;;0.90;;
7969;SDS011;4030;52.362;9.206;2023-08-06T06:42:46;2.05;;;0.98;;
7969;SDS011;4030;52.362;9.206;2023-08-06T06:45:12;1.65;;;1.20;;
7969;SDS011;4030;52.362;9.206;2023-08-06T06:47:38;1.67;;;1.05;;
7969;SDS011;4030;52.362;9.206;2023-08-06T06:50:03;2.53;;;1.20;;
7969;SDS011;4030;52.362;9.206;2023-08-06T06:52:30;1.40;;;0.98;;
7969;SDS011;4030;52.362;9.206;2023-08-06T06:54:55;1.83;;;1.10;;
7969;SDS011;4030;52.362;9.206;2023-08-06T06:57:21;1.02;;;1.00;;
7969;SDS011;4030;52.362;9.206;2023-08-06T06:59:47;1.60;;;1.00;;
7969;SDS011;4030;52.362;9.206;2023-08-06T07:02:12;1.40;;;1.10;;
7969;SDS011;4030;52.362;9.206;2023-08-06T07:04:38;1.60;;;1.00;;
7969;SDS011;4030;52.362;9.206;2023-08-06T07:07:03;1.70;;;1.10;;
7969;SDS011;4030;52.362;9.206;2023-08-06T07:09:29;1.58;;;1.08;;
7969;SDS011;4030;52.362;9.206;2023-08-06T07:11:55;1.33;;;1.00;;
7969;SDS011;4030;52.362;9.206;2023-08-06T07:14:21;1.10;;;1.00;;
7969;SDS011;4030;52.362;9.206;2023-08-06T07:16:46;2.35;;;0.90;;
7969;SDS011;4030;52.362;9.206;2023-08-06T07:19:12;1.23;;;1.10;;
7969;SDS011;4030;52.362;9.206;2023-08-06T07:21:38;1.75;;;1.10;;
7969;SDS011;4030;52.362;9.206;2023-08-06T07:24:03;2.15;;;1.10;;
7969;SDS011;4030;52.362;9.206;2023-08-06T07:26:29;1.10;;;1.00;;
7969;SDS011;4030;52.362;9.206;2023-08-06T07:28:55;0.88;;;0.88;;
7969;SDS011;4030;52.362;9.206;2023-08-06T07:31:20;1.45;;;1.13;;
7969;SDS011;4030;52.362;9.206;2023-08-06T07:33:46;1.52;;;1.10;;
7969;SDS011;4030;52.362;9.206;2023-08-06T07:36:12;1.42;;;1.08;;
7969;SDS011;4030;52.362;9.206;2023-08-06T07:38:39;2.60;;;1.05;;
7969;SDS011;4030;52.362;9.206;2023-08-06T07:41:06;1.95;;;1.10;;
7969;SDS011;4030;52.362;9.206;2023-08-06T07:43:32;1.63;;;1.00;;
7969;SDS011;4030;52.362;9.206;2023-08-06T07:45:58;1.02;;;0.90;;
7969;SDS011;4030;52.362;9.206;2023-08-06T07:48:25;1.20;;;1.10;;
7969;SDS011;4030;52.362;9.206;2023-08-06T07:50:53;1.30;;;1.00;;
7969;SDS011;4030;52.362;9.206;2023-08-06T07:53:22;0.90;;;0.90;;
7969;SDS011;4030;52.362;9.206;2023-08-06T07:55:52;1.20;;;1.05;;
7969;SDS011;4030;52.362;9.206;2023-08-06T07:58:19;2.75;;;1.00;;
7969;SDS011;4030;52.362;9.206;2023-08-06T08:00:45;2.13;;;1.20;;
7969;SDS011;4030;52.362;9.206;2023-08-06T08:03:12;1.45;;;1.10;;
7969;SDS011;4030;52.362;9.206;2023-08-06T08:05:39;1.23;;;1.10;;
7969;SDS011;4030;52.362;9.206;2023-08-06T08:08:06;1.65;;;1.20;;
7969;SDS011;4030;52.362;9.206;2023-08-06T08:10:32;1.13;;;1.02;;
7969;SDS011;4030;52.362;9.206;2023-08-06T08:12:58;1.27;;;1.17;;
7969;SDS011;4030;52.362;9.206;2023-08-06T08:15:24;2.05;;;1.00;;
7969;SDS011;4030;52.362;9.206;2023-08-06T08:17:53;1.20;;;1.00;;
7969;SDS011;4030;52.362;9.206;2023-08-06T08:20:18;1.20;;;1.10;;
7969;SDS011;4030;52.362;9.206;2023-08-06T08:22:44;2.53;;;1.00;;
7969;SDS011;4030;52.362;9.206;2023-08-06T08:25:10;1.40;;;1.10;;
7969;SDS011;4030;52.362;9.206;2023-08-06T08:27:35;1.08;;;1.08;;
7969;SDS011;4030;52.362;9.206;2023-08-06T08:30:01;1.20;;;1.10;;
7969;SDS011;4030;52.362;9.206;2023-08-06T08:32:27;1.42;;;1.10;;
7969;SDS011;4030;52.362;9.206;2023-08-06T08:34:52;1.20;;;1.10;;
7969;SDS011;4030;52.362;9.206;2023-08-06T08:37:18;1.73;;;1.23;;
7969;SDS011;4030;52.362;9.206;2023-08-06T08:39:44;1.48;;;1.20;;
7969;SDS011;4030;52.362;9.206;2023-08-06T08:42:10;1.33;;;1.10;;
7969;SDS011;4030;52.362;9.206;2023-08-06T08:44:36;1.98;;;1.25;;
7969;SDS011;4030;52.362;9.206;2023-08-06T08:47:04;3.70;;;1.30;;
7969;SDS011;4030;52.362;9.206;2023-08-06T08:49:31;3.15;;;1.10;;
7969;SDS011;4030;52.362;9.206;2023-08-06T08:51:57;1.80;;;1.17;;
7969;SDS011;4030;52.362;9.206;2023-08-06T08:54:27;1.10;;;1.00;;
7969;SDS011;4030;52.362;9.206;2023-08-06T08:56:54;2.33;;;1.23;;
7969;SDS011;4030;52.362;9.206;2023-08-06T08:59:20;1.52;;;1.20;;
7969;SDS011;4030;52.362;9.206;2023-08-06T09:01:45;1.48;;;1.10;;
7969;SDS011;4030;52.362;9.206;2023-08-06T09:04:16;1.17;;;1.10;;
7969;SDS011;4030;52.362;9.206;2023-08-06T09:06:43;1.65;;;1.30;;
7969;SDS011;4030;52.362;9.206;2023-08-06T09:09:15;4.47;;;1.30;;
7969;SDS011;4030;52.362;9.206;2023-08-06T09:11:47;1.33;;;1.20;;
7969;SDS011;4030;52.362;9.206;2023-08-06T09:14:14;1.15;;;1.00;;
7969;SDS011;4030;52.362;9.206;2023-08-06T09:16:40;1.42;;;1.30;;
7969;SDS011;4030;52.362;9.206;2023-08-06T09:19:12;2.13;;;1.30;;
7969;SDS011;4030;52.362;9.206;2023-08-06T09:21:42;2.33;;;1.58;;
7969;SDS011;4030;52.362;9.206;2023-08-06T09:24:08;2.00;;;1.20;;
7969;SDS011;4030;52.362;9.206;2023-08-06T09:26:36;1.20;;;1.10;;
7969;SDS011;4030;52.362;9.206;2023-08-06T09:29:06;2.30;;;1.40;;
7969;SDS011;4030;52.362;9.206;2023-08-06T09:31:45;2.13;;;1.30;;
7969;SDS011;4030;52.362;9.206;2023-08-06T09:34:23;1.40;;;1.30;;
7969;SDS011;4030;52.362;9.206;2023-08-06T09:36:49;1.50;;;1.30;;
7969;SDS011;4030;52.362;9.206;2023-08-06T09:39:17;1.80;;;1.27;;
7969;SDS011;4030;52.362;9.206;2023-08-06T09:41:45;1.63;;;1.35;;
7969;SDS011;4030;52.362;9.206;2023-08-06T09:44:19;1.85;;;1.45;;
7969;SDS011;4030;52.362;9.206;2023-08-06T09:46:52;1.55;;;1.40;;
7969;SDS011;4030;52.362;9.206;2023-08-06T09:49:26;15.35;;;2.42;;
7969;SDS011;4030;52.362;9.206;2023-08-06T09:51:58;8.10;;;2.00;;
7969;SDS011;4030;52.362;9.206;2023-08-06T09:54:25;5.30;;;1.80;;
7969;SDS011;4030;52.362;9.206;2023-08-06T09:56:55;3.38;;;1.50;;
7969;SDS011;4030;52.362;9.206;2023-08-06T09:59:24;3.17;;;1.40;;
7969;SDS011;4030;52.362;9.206;2023-08-06T10:01:50;3.05;;;1.55;;
7969;SDS011;4030;52.362;9.206;2023-08-06T10:04:16;4.97;;;1.63;;
7969;SDS011;4030;52.362;9.206;2023-08-06T10:06:43;3.58;;;1.40;;
7969;SDS011;4030;52.362;9.206;2023-08-06T10:09:13;1.20;;;1.10;;
7969;SDS011;4030;52.362;9.206;2023-08-06T10:11:39;5.68;;;1.45;;
7969;SDS011;4030;52.362;9.206;2023-08-06T10:16:52;2.35;;;1.40;;
7969;SDS011;4030;52.362;9.206;2023-08-06T10:19:19;2.88;;;1.30;;
7969;SDS011;4030;52.362;9.206;2023-08-06T10:24:51;3.42;;;1.45;;
7969;SDS011;4030;52.362;9.206;2023-08-06T10:27:22;1.77;;;1.40;;
7969;SDS011;4030;52.362;9.206;2023-08-06T10:32:57;3.80;;;1.60;;
7969;SDS011;4030;52.362;9.206;2023-08-06T10:35:31;2.05;;;1.25;;
7969;SDS011;4030;52.362;9.206;2023-08-06T10:38:10;1.42;;;1.33;;
7969;SDS011;4030;52.362;9.206;2023-08-06T10:40:41;2.55;;;1.50;;
7969;SDS011;4030;52.362;9.206;2023-08-06T10:43:28;2.25;;;1.55;;
7969;SDS011;4030;52.362;9.206;2023-08-06T10:45:57;3.05;;;1.50;;
7969;SDS011;4030;52.362;9.206;2023-08-06T10:48:31;2.05;;;1.40;;
7969;SDS011;4030;52.362;9.206;2023-08-06T10:51:03;3.25;;;1.58;;
7969;SDS011;4030;52.362;9.206;2023-08-06T10:53:35;1.90;;;1.52;;
7969;SDS011;4030;52.362;9.206;2023-08-06T10:56:01;2.28;;;1.55;;
7969;SDS011;4030;52.362;9.206;2023-08-06T10:58:37;2.80;;;1.77;;
7969;SDS011;4030;52.362;9.206;2023-08-06T11:01:02;1.70;;;1.60;;
7969;SDS011;4030;52.362;9.206;2023-08-06T11:03:28;1.80;;;1.70;;
7969;SDS011;4030;52.362;9.206;2023-08-06T11:05:54;2.40;;;1.70;;
7969;SDS011;4030;52.362;9.206;2023-08-06T11:08:26;4.38;;;2.00;;
7969;SDS011;4030;52.362;9.206;2023-08-06T11:10:53;1.90;;;1.67;;
7969;SDS011;4030;52.362;9.206;2023-08-06T11:13:20;2.00;;;1.50;;
7969;SDS011;4030;52.362;9.206;2023-08-06T11:15:46;2.97;;;1.70;;
7969;SDS011;4030;52.362;9.206;2023-08-06T11:18:12;2.95;;;1.70;;
7969;SDS011;4030;52.362;9.206;2023-08-06T11:20:38;3.78;;;1.65;;
7969;SDS011;4030;52.362;9.206;2023-08-06T11:23:05;2.00;;;1.52;;
7969;SDS011;4030;52.362;9.206;2023-08-06T11:25:31;2.47;;;1.80;;
7969;SDS011;4030;52.362;9.206;2023-08-06T11:28:01;2.33;;;1.98;;
7969;SDS011;4030;52.362;9.206;2023-08-06T11:30:27;2.55;;;1.80;;
7969;SDS011;4030;52.362;9.206;2023-08-06T11:32:53;2.78;;;1.70;;
7969;SDS011;4030;52.362;9.206;2023-08-06T11:35:18;3.35;;;1.80;;
7969;SDS011;4030;52.362;9.206;2023-08-06T11:37:44;3.90;;;2.00;;
7969;SDS011;4030;52.362;9.206;2023-08-06T11:40:11;4.30;;;2.05;;
7969;SDS011;4030;52.362;9.206;2023-08-06T11:42:39;3.83;;;1.90;;
7969;SDS011;4030;52.362;9.206;2023-08-06T11:45:05;2.13;;;1.52;;
7969;SDS011;4030;52.362;9.206;2023-08-06T11:47:33;2.65;;;1.70;;
7969;SDS011;4030;52.362;9.206;2023-08-06T11:49:59;3.47;;;1.90;;
7969;SDS011;4030;52.362;9.206;2023-08-06T11:52:25;2.00;;;1.80;;
7969;SDS011;4030;52.362;9.206;2023-08-06T11:55:04;1.92;;;1.70;;
7969;SDS011;4030;52.362;9.206;2023-08-06T11:57:33;1.92;;;1.65;;
7969;SDS011;4030;52.362;9.206;2023-08-06T12:00:06;2.33;;;1.63;;
7969;SDS011;4030;52.362;9.206;2023-08-06T12:02:34;1.98;;;1.75;;
7969;SDS011;4030;52.362;9.206;2023-08-06T12:07:39;2.60;;;2.00;;
7969;SDS011;4030;52.362;9.206;2023-08-06T12:10:07;2.08;;;1.77;;
7969;SDS011;4030;52.362;9.206;2023-08-06T12:12:34;3.20;;;1.90;;
7969;SDS011;4030;52.362;9.206;2023-08-06T12:15:00;4.88;;;1.90;;
7969;SDS011;4030;52.362;9.206;2023-08-06T12:17:27;1.60;;;1.50;;
7969;SDS011;4030;52.362;9.206;2023-08-06T12:19:52;5.93;;;2.00;;
7969;SDS011;4030;52.362;9.206;2023-08-06T12:22:18;4.65;;;1.90;;
7969;SDS011;4030;52.362;9.206;2023-08-06T12:24:45;2.80;;;1.83;;
7969;SDS011;4030;52.362;9.206;2023-08-06T12:27:12;3.47;;;1.75;;
7969;SDS011;4030;52.362;9.206;2023-08-06T12:29:41;3.17;;;1.80;;
7969;SDS011;4030;52.362;9.206;2023-08-06T12:32:12;3.00;;;1.85;;
7969;SDS011;4030;52.362;9.206;2023-08-06T12:34:38;1.98;;;1.60;;
7969;SDS011;4030;52.362;9.206;2023-08-06T12:37:05;2.65;;;1.95;;
7969;SDS011;4030;52.362;9.206;2023-08-06T12:39:32;2.05;;;1.83;;
7969;SDS011;4030;52.362;9.206;2023-08-06T12:42:01;4.20;;;1.80;;
7969;SDS011;4030;52.362;9.206;2023-08-06T12:44:29;3.58;;;1.60;;
7969;SDS011;4030;52.362;9.206;2023-08-06T12:46:55;2.80;;;1.67;;
7969;SDS011;4030;52.362;9.206;2023-08-06T12:49:21;4.05;;;1.80;;
7969;SDS011;4030;52.362;9.206;2023-08-06T12:51:48;2.45;;;1.60;;
7969;SDS011;4030;52.362;9.206;2023-08-06T12:54:16;3.03;;;1.85;;
7969;SDS011;4030;52.362;9.206;2023-08-06T12:56:42;2.22;;;1.63;;
7969;SDS011;4030;52.362;9.206;2023-08-06T12:59:08;2.05;;;1.65;;
7969;SDS011;4030;52.362;9.206;2023-08-06T13:01:34;2.42;;;1.63;;
7969;SDS011;4030;52.362;9.206;2023-08-06T13:04:00;6.38;;;1.70;;
7969;SDS011;4030;52.362;9.206;2023-08-06T13:06:25;2.50;;;1.60;;
7969;SDS011;4030;52.362;9.206;2023-08-06T13:08:51;3.42;;;1.80;;
7969;SDS011;4030;52.362;9.206;2023-08-06T13:11:17;2.17;;;1.52;;
7969;SDS011;4030;52.362;9.206;2023-08-06T13:13:44;2.88;;;1.70;;
7969;SDS011;4030;52.362;9.206;2023-08-06T13:16:09;2.90;;;1.88;;
7969;SDS011;4030;52.362;9.206;2023-08-06T13:18:35;3.15;;;1.80;;
7969;SDS011;4030;52.362;9.206;2023-08-06T13:21:01;2.53;;;1.75;;
7969;SDS011;4030;52.362;9.206;2023-08-06T13:23:26;1.95;;;1.63;;
7969;SDS011;4030;52.362;9.206;2023-08-06T13:25:53;2.03;;;1.40;;
7969;SDS011;4030;52.362;9.206;2023-08-06T13:28:18;3.05;;;1.70;;
7969;SDS011;4030;52.362;9.206;2023-08-06T13:30:44;2.40;;;1.65;;
7969;SDS011;4030;52.362;9.206;2023-08-06T13:33:11;2.00;;;1.67;;
7969;SDS011;4030;52.362;9.206;2023-08-06T13:35:37;1.83;;;1.42;;
7969;SDS011;4030;52.362;9.206;2023-08-06T13:38:03;1.60;;;1.20;;
7969;SDS011;4030;52.362;9.206;2023-08-06T13:40:29;2.88;;;1.30;;
7969;SDS011;4030;52.362;9.206;2023-08-06T13:42:57;2.15;;;1.42;;
7969;SDS011;4030;52.362;9.206;2023-08-06T13:45:23;2.20;;;1.30;;
7969;SDS011;4030;52.362;9.206;2023-08-06T13:47:49;1.75;;;1.15;;
7969;SDS011;4030;52.362;9.206;2023-08-06T13:50:14;1.52;;;1.40;;
7969;SDS011;4030;52.362;9.206;2023-08-06T13:52:40;1.55;;;1.30;;
7969;SDS011;4030;52.362;9.206;2023-08-06T13:55:06;1.55;;;1.20;;
7969;SDS011;4030;52.362;9.206;2023-08-06T13:57:34;2.75;;;1.23;;
7969;SDS011;4030;52.362;9.206;2023-08-06T14:00:00;3.50;;;1.42;;
7969;SDS011;4030;52.362;9.206;2023-08-06T14:02:26;2.05;;;1.27;;
7969;SDS011;4030;52.362;9.206;2023-08-06T14:04:52;1.90;;;1.40;;
7969;SDS011;4030;52.362;9.206;2023-08-06T14:07:18;1.75;;;1.40;;
7969;SDS011;4030;52.362;9.206;2023-08-06T14:09:45;1.67;;;1.42;;
7969;SDS011;4030;52.362;9.206;2023-08-06T14:12:12;1.83;;;1.40;;
7969;SDS011;4030;52.362;9.206;2023-08-06T14:14:38;1.30;;;1.20;;
7969;SDS011;4030;52.362;9.206;2023-08-06T14:17:04;2.38;;;1.35;;
7969;SDS011;4030;52.362;9.206;2023-08-06T14:19:30;1.70;;;1.30;;
7969;SDS011;4030;52.362;9.206;2023-08-06T14:21:56;1.48;;;1.30;;
7969;SDS011;4030;52.362;9.206;2023-08-06T14:24:21;1.40;;;1.20;;
7969;SDS011;4030;52.362;9.206;2023-08-06T14:26:47;1.42;;;1.20;;
7969;SDS011;4030;52.362;9.206;2023-08-06T14:29:13;1.50;;;1.13;;
7969;SDS011;4030;52.362;9.206;2023-08-06T14:31:39;1.63;;;1.10;;
7969;SDS011;4030;52.362;9.206;2023-08-06T14:34:06;1.60;;;1.10;;
7969;SDS011;4030;52.362;9.206;2023-08-06T14:36:31;1.70;;;1.15;;
7969;SDS011;4030;52.362;9.206;2023-08-06T14:38:57;1.45;;;1.10;;
7969;SDS011;4030;52.362;9.206;2023-08-06T14:41:23;2.55;;;1.30;;
7969;SDS011;4030;52.362;9.206;2023-08-06T14:43:49;3.38;;;1.40;;
7969;SDS011;4030;52.362;9.206;2023-08-06T14:46:15;2.15;;;1.40;;
7969;SDS011;4030;52.362;9.206;2023-08-06T14:48:41;1.48;;;1.30;;
7969;SDS011;4030;52.362;9.206;2023-08-06T14:51:07;3.00;;;1.42;;
7969;SDS011;4030;52.362;9.206;2023-08-06T14:53:33;1.77;;;1.13;;
7969;SDS011;4030;52.362;9.206;2023-08-06T14:55:59;1.80;;;1.30;;
7969;SDS011;4030;52.362;9.206;2023-08-06T14:58:25;1.95;;;1.30;;
7969;SDS011;4030;52.362;9.206;2023-08-06T15:00:50;2.20;;;1.40;;
7969;SDS011;4030;52.362;9.206;2023-08-06T15:03:16;2.10;;;1.40;;
7969;SDS011;4030;52.362;9.206;2023-08-06T15:05:48;3.03;;;1.33;;
7969;SDS011;4030;52.362;9.206;2023-08-06T15:08:14;1.63;;;1.20;;
7969;SDS011;4030;52.362;9.206;2023-08-06T15:10:40;1.55;;;1.35;;
7969;SDS011;4030;52.362;9.206;2023-08-06T15:13:05;1.30;;;1.20;;
7969;SDS011;4030;52.362;9.206;2023-08-06T15:15:31;1.90;;;1.35;;
7969;SDS011;4030;52.362;9.206;2023-08-06T15:17:57;1.85;;;1.30;;
7969;SDS011;4030;52.362;9.206;2023-08-06T15:20:23;1.65;;;1.20;;
7969;SDS011;4030;52.362;9.206;2023-08-06T15:22:49;1.27;;;1.05;;
7969;SDS011;4030;52.362;9.206;2023-08-06T15:25:15;1.35;;;1.25;;
7969;SDS011;4030;52.362;9.206;2023-08-06T15:27:40;2.45;;;1.42;;